Impacts METAR Board
IDs:

KDTW - Detroit Metro/Wayne, MI, US

Updated at: 0100 UTC 28 May 2018
Potential Impact None Slight Moderate High
Time 27/13Z 27/14Z 27/15Z 27/16Z 27/17Z 27/18Z 27/19Z 27/20Z 27/21Z 27/22Z 27/23Z 28/00Z 28/01Z
Temp70 72 76 81 84 86 89 89 90 88 87 84 80
Dewpt66 67 68 69 67 64 63 62 62 70 68 67 68
Altim29.91 29.91 29.90 29.90 29.90 29.89 29.90 29.89 29.87 29.89 29.87 29.88 29.88
VIS1 3 8 9 10 10 10 10 9 9 9 8 8
CIG2 5 -- -- -- -- -- -- -- -- -- -- --
CoverOVCBKNSCTSCTSCTSCTFEWFEWFEWFEWFEWSCTSCT
FltCatLIFRIFRVFRVFRVFRVFRVFRVFRVFRVFRVFRVFRVFR
WXBRHZ----------------------
WDir3601701500180190280210220170180190170
WSpd3 3 3 3 7 5 8 5 5 9 10 10 6
WGst-- -- -- -- -- -- -- -- -- -- -- -- --
Raw hourly METARs
KDTW 271253Z 36003KT 1SM R03R/2000V3000FT BR OVC002 21/19 A2991 RMK AO2 SLP126 T02110189 $
KDTW 271353Z 17003KT 3SM HZ BKN005 22/19 A2991 RMK AO2 SLP125 T02220194 $
KDTW 271453Z 15003KT 8SM FEW120 SCT250 24/20 A2990 RMK AO2 SLP122 T02440200 50001 $
KDTW 271553Z VRB03KT 9SM FEW030 SCT250 27/21 A2990 RMK AO2 SLP120 T02720206 $
KDTW 271653Z 18007KT 10SM FEW030 SCT250 29/19 A2990 RMK AO2 SLP119 T02890194 $
KDTW 271753Z 19005KT 10SM FEW030 SCT250 30/18 A2989 RMK AO2 SLP119 T03000178 10300 20200 58002 $
KDTW 271853Z 28008KT 10SM FEW040 FEW250 32/17 A2990 RMK AO2 SLP119 T03170172 $
KDTW 271953Z 21005KT 10SM FEW050 FEW250 32/17 A2989 RMK AO2 SLP117 T03170167 $
KDTW 272053Z 22005KT 9SM FEW050 FEW250 32/17 A2987 RMK AO2 SLP111 T03220167 58006 $
KDTW 272153Z 17009KT 9SM FEW050 FEW250 31/21 A2989 RMK AO2 SLP116 T03110211 $
KDTW 272253Z 18010KT 9SM FEW050 FEW250 31/20 A2987 RMK AO2 SLP111 T03060200 $
KDTW 272353Z 19010KT 8SM FEW050 SCT250 29/19 A2988 RMK AO2 SLP113 T02890194 10328 20289 51001 $
KDTW 280053Z 17006KT 8SM FEW050 SCT250 27/20 A2988 RMK AO2 SLP114 T02670200 $



Page loaded:  01:37 UTC  |   06:37 PM Pacific  |   07:37 PM Mountain  |   08:37 PM Central  |   09:37 PM Eastern

 

ADVISORIES

FORECASTS

FORECASTS

OBSERVATIONS

USER TOOLS

ABOUT US